Time;durP1;ratioP1;P1;durP2;ratioP2;P2;SDS_P1;SDS_P2;PMS_P1;PMS_P2;Temp;Humidity;BMP_temperature;BMP_pressure;BME280_temperature;BME280_humidity;BME280_pressure;Samples;Min_cycle;Max_cycle;Signal;HPM_P1;HPM_P2
2022/01/26 00:07:20;;;;;;;56.47;24.50;;;1.10;99.90;;;;;;5009092;28;20036;-82
2022/01/26 00:09:46;;;;;;;50.60;22.42;;;1.10;99.90;;;;;;5005860;28;20482;-83
2022/01/26 00:12:11;;;;;;;56.28;25.05;;;1.00;99.90;;;;;;5004102;28;20121;-80
2022/01/26 00:14:42;;;;;;;56.10;25.05;;;1.00;99.90;;;;;;5006452;28;20030;-82
2022/01/26 00:17:11;;;;;;;55.33;24.52;;;1.00;99.90;;;;;;5008770;28;20026;-81
2022/01/26 00:19:51;;;;;;;56.38;24.10;;;0.90;99.90;;;;;;5007021;28;20030;-82
2022/01/26 00:22:36;;;;;;;47.08;22.20;;;0.90;99.90;;;;;;5006171;28;20062;-81
2022/01/26 00:27:54;;;;;;;43.63;19.50;;;0.60;99.90;;;;;;4988383;28;20038;-80
2022/01/26 00:38:55;;;;;;;61.33;26.08;;;0.50;99.90;;;;;;4981764;28;20439;-84
2022/01/26 00:41:37;;;;;;;53.35;24.67;;;0.50;99.90;;;;;;4987267;28;20019;-83
2022/01/26 00:44:05;;;;;;;56.95;25.83;;;0.40;99.90;;;;;;4987054;28;20019;-82
2022/01/26 00:46:32;;;;;;;56.55;24.92;;;0.30;99.90;;;;;;4988633;28;20066;-84
2022/01/26 00:48:58;;;;;;;54.65;23.33;;;0.30;99.90;;;;;;4989492;28;20025;-82
2022/01/26 00:51:23;;;;;;;50.38;22.73;;;0.20;99.90;;;;;;4985626;28;20039;-79
2022/01/26 00:54:01;;;;;;;54.95;22.67;;;0.10;99.90;;;;;;4993168;28;20112;-80
2022/01/26 00:56:27;;;;;;;70.28;27.05;;;0.10;99.90;;;;;;5003406;28;20375;-80
2022/01/26 00:58:54;;;;;;;63.15;27.05;;;0.10;99.90;;;;;;4997228;28;20023;-82
2022/01/26 01:01:20;;;;;;;67.85;27.23;;;0.00;99.90;;;;;;4999640;28;20513;-82
2022/01/26 01:03:47;;;;;;;57.35;26.13;;;0.00;99.90;;;;;;5001657;28;20027;-85
2022/01/26 01:06:24;;;;;;;54.15;24.30;;;-0.10;99.90;;;;;;5001858;28;20097;-84
2022/01/26 01:08:50;;;;;;;57.22;24.13;;;-0.10;99.90;;;;;;4999647;28;20055;-84
2022/01/26 01:11:16;;;;;;;63.60;26.65;;;-0.10;99.90;;;;;;5002320;28;20026;-85
2022/01/26 01:13:43;;;;;;;62.30;26.60;;;0.00;99.90;;;;;;5001083;28;20030;-84
2022/01/26 01:16:14;;;;;;;61.60;25.23;;;-0.10;99.90;;;;;;5001093;28;20026;-83
2022/01/26 01:31:53;;;;;;;52.17;21.60;;;-0.10;99.90;;;;;;5001812;28;20106;-84
2022/01/26 01:34:29;;;;;;;48.00;21.30;;;-0.20;99.90;;;;;;5000017;28;20023;-84
2022/01/26 01:37:02;;;;;;;49.25;21.00;;;-0.20;99.90;;;;;;5003350;28;20054;-84
2022/01/26 01:39:29;;;;;;;49.22;21.00;;;-0.20;99.90;;;;;;5003109;28;20026;-85
2022/01/26 01:41:55;;;;;;;55.58;23.48;;;-0.20;99.90;;;;;;5000497;28;20030;-83
2022/01/26 01:44:21;;;;;;;48.15;20.88;;;-0.10;99.90;;;;;;5000544;28;20032;-85
2022/01/26 01:46:48;;;;;;;48.65;22.13;;;-0.10;99.90;;;;;;5000385;28;20058;-83
2022/01/26 01:49:15;;;;;;;50.58;23.25;;;-0.10;99.90;;;;;;5003999;28;20538;-85
2022/01/26 01:51:48;;;;;;;50.40;21.63;;;0.00;99.90;;;;;;5004386;28;20049;-85
2022/01/26 01:54:16;;;;;;;50.20;22.95;;;-0.10;99.90;;;;;;5003414;28;20053;-85
2022/01/26 01:56:54;;;;;;;45.08;21.45;;;-0.10;99.90;;;;;;5005125;28;20049;-84
2022/01/26 01:59:24;;;;;;;48.10;22.50;;;-0.10;99.90;;;;;;5002667;28;20104;-83
2022/01/26 02:01:50;;;;;;;51.83;23.08;;;-0.20;99.90;;;;;;5002856;28;20057;-82
2022/01/26 02:04:16;;;;;;;53.00;23.65;;;-0.30;99.90;;;;;;5001677;28;20034;-84
2022/01/26 02:06:43;;;;;;;55.03;23.05;;;-0.30;99.90;;;;;;5006836;28;20053;-83
2022/01/26 02:09:10;;;;;;;46.08;21.40;;;-0.40;99.90;;;;;;4998994;28;20113;-83
2022/01/26 02:11:53;;;;;;;51.35;21.20;;;-0.40;99.90;;;;;;4997401;28;20022;-86
2022/01/26 02:14:31;;;;;;;58.67;23.73;;;-0.30;99.90;;;;;;4998702;28;20022;-83
2022/01/26 02:18:13;;;;;;;51.72;22.65;;;-0.30;99.90;;;;;;4971678;28;20033;-83
2022/01/26 03:00:24;;;;;;;51.50;23.25;;;0.10;99.90;;;;;;4997786;28;20019;-88
2022/01/26 03:02:59;;;;;;;48.90;21.90;;;0.10;99.90;;;;;;4995682;28;20050;-83
2022/01/26 03:05:32;;;;;;;46.40;21.17;;;0.10;99.90;;;;;;4975625;28;20035;-85
2022/01/26 03:08:05;;;;;;;47.13;20.70;;;0.10;99.90;;;;;;4988984;28;20027;-84
2022/01/26 03:13:03;;;;;;;45.33;19.55;;;0.10;99.90;;;;;;4985662;28;20045;-83
2022/01/26 03:15:36;;;;;;;44.80;20.08;;;0.00;99.90;;;;;;4961319;28;20476;-84
2022/01/26 03:18:34;;;;;;;42.67;20.17;;;-0.10;99.90;;;;;;4993857;28;20026;-83
2022/01/26 03:20:53;;;;;;;48.42;20.88;;;-0.10;99.90;;;;;;4996465;28;20023;-83
2022/01/26 03:34:01;;;;;;;38.50;18.85;;;-0.10;99.90;;;;;;5000769;28;20424;-82
2022/01/26 03:36:32;;;;;;;39.17;18.50;;;-0.20;99.90;;;;;;5007100;28;20036;-82
2022/01/26 03:39:03;;;;;;;42.38;18.83;;;-0.30;99.90;;;;;;5013235;28;20030;-84
2022/01/26 03:44:04;;;;;;;35.40;16.10;;;-0.40;99.90;;;;;;5010827;28;20110;-80
2022/01/26 03:46:31;;;;;;;43.72;19.70;;;-0.40;99.90;;;;;;5011049;28;20029;-80
2022/01/26 03:48:57;;;;;;;34.90;17.77;;;-0.40;99.90;;;;;;5004814;28;20056;-80
2022/01/26 03:51:23;;;;;;;44.30;18.83;;;-0.30;99.90;;;;;;5002323;28;20038;-81
2022/01/26 03:53:49;;;;;;;39.40;17.42;;;-0.20;99.90;;;;;;5003125;28;20026;-80
2022/01/26 03:56:14;;;;;;;38.88;17.70;;;-0.10;99.90;;;;;;5004798;28;20041;-81
2022/01/26 03:58:40;;;;;;;39.95;18.23;;;-0.10;99.90;;;;;;5003842;28;20034;-82
2022/01/26 04:01:06;;;;;;;41.75;19.13;;;-0.10;99.90;;;;;;5002254;28;20056;-80
2022/01/26 04:03:32;;;;;;;47.22;19.90;;;-0.10;99.90;;;;;;5000515;28;20023;-80
2022/01/26 04:05:58;;;;;;;41.80;18.33;;;0.00;99.90;;;;;;5004992;28;20037;-80
2022/01/26 04:08:28;;;;;;;40.83;19.48;;;0.00;99.90;;;;;;5001635;28;20037;-80
2022/01/26 04:13:20;;;;;;;39.90;19.27;;;0.10;99.90;;;;;;5001353;28;20049;-80
2022/01/26 04:15:46;;;;;;;41.20;18.98;;;0.20;99.90;;;;;;4992478;28;20041;-80
2022/01/26 04:18:17;;;;;;;46.17;20.65;;;0.20;99.90;;;;;;5001582;28;20034;-82
2022/01/26 04:20:47;;;;;;;41.85;18.83;;;0.20;99.90;;;;;;5002660;28;20033;-80
2022/01/26 04:23:20;;;;;;;39.88;18.52;;;0.10;99.90;;;;;;4999927;28;20022;-81
2022/01/26 04:25:48;;;;;;;42.42;18.55;;;0.00;99.90;;;;;;5002961;28;20077;-81
2022/01/26 04:28:21;;;;;;;42.72;18.80;;;-0.20;99.90;;;;;;5002173;28;20026;-80
2022/01/26 04:30:48;;;;;;;38.22;18.15;;;-0.30;99.90;;;;;;5023830;28;20026;-83
2022/01/26 04:33:13;;;;;;;48.38;19.73;;;-0.30;99.90;;;;;;5017387;28;20026;-84
2022/01/26 04:35:43;;;;;;;38.55;18.70;;;-0.30;99.90;;;;;;5015124;28;20036;-82
2022/01/26 04:38:28;;;;;;;41.45;20.10;;;-0.30;99.90;;;;;;5032727;28;20025;-83
2022/01/26 04:43:25;;;;;;;44.90;20.20;;;-0.30;99.90;;;;;;5023460;28;20026;-84
2022/01/26 04:45:50;;;;;;;46.60;19.60;;;-0.30;99.90;;;;;;4996378;28;20541;-82
2022/01/26 04:48:34;;;;;;;48.50;21.13;;;-0.30;99.90;;;;;;5005952;28;20094;-84
2022/01/26 04:51:00;;;;;;;43.03;20.08;;;-0.30;99.90;;;;;;5000107;28;20022;-78
2022/01/26 04:53:25;;;;;;;42.67;19.10;;;-0.30;99.90;;;;;;5004398;28;20049;-79
2022/01/26 04:55:52;;;;;;;46.67;20.13;;;-0.30;99.90;;;;;;5008141;28;20038;-79
2022/01/26 04:58:18;;;;;;;44.10;20.10;;;-0.30;99.90;;;;;;5006942;28;20042;-79
2022/01/26 05:00:44;;;;;;;45.30;20.80;;;-0.30;99.90;;;;;;5005308;28;20038;-80
2022/01/26 05:03:10;;;;;;;42.75;19.63;;;-0.40;99.90;;;;;;5007075;28;20082;-79
2022/01/26 05:05:36;;;;;;;45.10;20.05;;;-0.40;99.90;;;;;;5008946;28;20092;-79
2022/01/26 05:08:01;;;;;;;39.05;18.63;;;-0.50;99.90;;;;;;5010257;28;20031;-80
2022/01/26 05:10:28;;;;;;;39.33;17.20;;;-0.50;99.90;;;;;;5008888;28;20078;-78
2022/01/26 05:12:54;;;;;;;34.60;17.45;;;-0.40;99.90;;;;;;5008338;28;20119;-78
2022/01/26 05:15:22;;;;;;;34.85;15.88;;;-0.30;99.90;;;;;;5009430;28;20026;-79
2022/01/26 05:17:49;;;;;;;38.15;17.55;;;-0.20;99.90;;;;;;4999900;28;20060;-81
2022/01/26 05:20:15;;;;;;;37.55;17.90;;;-0.20;99.90;;;;;;4996858;28;20478;-80
2022/01/26 05:22:43;;;;;;;34.00;16.35;;;-0.20;99.90;;;;;;4984111;28;20054;-77
2022/01/26 05:25:09;;;;;;;38.05;18.30;;;-0.30;99.90;;;;;;4998220;28;20018;-78
2022/01/26 05:27:35;;;;;;;37.28;16.73;;;-0.30;99.90;;;;;;4997914;28;20042;-77
2022/01/26 05:30:02;;;;;;;36.45;17.02;;;-0.30;99.90;;;;;;4999952;28;20037;-77
2022/01/26 05:32:28;;;;;;;36.40;16.77;;;-0.40;99.90;;;;;;4979258;28;20041;-78
2022/01/26 05:34:53;;;;;;;42.55;19.42;;;-0.40;99.90;;;;;;4979708;28;20034;-78
2022/01/26 05:37:19;;;;;;;36.55;18.00;;;-0.40;99.90;;;;;;4996348;28;20089;-78
2022/01/26 05:39:45;;;;;;;42.55;20.00;;;-0.50;99.90;;;;;;4996514;28;20118;-78
2022/01/26 05:42:11;;;;;;;41.55;19.60;;;-0.50;99.90;;;;;;4997135;28;20041;-78
2022/01/26 05:44:37;;;;;;;45.03;21.38;;;-0.60;99.90;;;;;;4996444;28;20034;-78
2022/01/26 05:47:06;;;;;;;47.13;23.75;;;-0.60;99.90;;;;;;4996939;28;20030;-78
2022/01/26 05:49:32;;;;;;;45.88;21.50;;;-0.50;99.90;;;;;;4995527;28;20109;-78
2022/01/26 05:51:58;;;;;;;44.28;20.08;;;-0.50;99.90;;;;;;4997117;28;20097;-79
2022/01/26 05:54:23;;;;;;;41.28;18.85;;;-0.60;99.90;;;;;;4995898;28;20034;-78
2022/01/26 05:56:49;;;;;;;40.28;18.65;;;-0.60;99.90;;;;;;5000577;28;20460;-78
2022/01/26 05:59:20;;;;;;;40.70;18.77;;;-0.60;99.90;;;;;;4999251;28;20030;-78
2022/01/26 06:01:47;;;;;;;36.40;17.58;;;-0.70;99.90;;;;;;4998370;28;20027;-78
2022/01/26 06:04:13;;;;;;;35.10;16.42;;;-0.70;99.90;;;;;;4998095;28;20042;-78
2022/01/26 06:06:39;;;;;;;27.85;14.13;;;-0.80;99.90;;;;;;4996809;28;20030;-78
2022/01/26 06:09:05;;;;;;;22.20;12.68;;;-0.90;99.90;;;;;;4997878;28;20072;-78
2022/01/26 06:11:30;;;;;;;21.15;11.55;;;-1.10;99.90;;;;;;4999245;28;20077;-78
2022/01/26 06:13:56;;;;;;;19.17;10.60;;;-1.10;99.90;;;;;;4998400;28;20043;-78
2022/01/26 06:16:23;;;;;;;17.48;9.73;;;-1.20;99.90;;;;;;4995410;28;20089;-78
2022/01/26 06:18:49;;;;;;;16.55;9.65;;;-1.30;99.90;;;;;;4999035;28;20087;-78
2022/01/26 06:21:14;;;;;;;15.55;8.77;;;-1.40;99.90;;;;;;5000160;28;20148;-79
2022/01/26 06:23:41;;;;;;;13.25;8.45;;;-1.50;99.90;;;;;;5003066;28;20030;-79
2022/01/26 06:26:07;;;;;;;13.82;8.38;;;-1.60;99.90;;;;;;4998733;28;20126;-78
2022/01/26 06:28:33;;;;;;;14.40;8.15;;;-1.70;99.90;;;;;;4998483;28;20022;-78
2022/01/26 06:31:03;;;;;;;14.63;8.40;;;-1.70;99.90;;;;;;5000331;28;20042;-78
2022/01/26 06:33:33;;;;;;;15.52;8.38;;;-1.80;99.90;;;;;;4998563;28;20030;-77
2022/01/26 06:36:00;;;;;;;12.07;7.47;;;-1.80;99.90;;;;;;4996703;28;20361;-78
2022/01/26 06:38:28;;;;;;;16.23;8.60;;;-1.80;99.90;;;;;;4997068;28;20077;-77
2022/01/26 06:40:58;;;;;;;14.63;8.60;;;-1.80;99.90;;;;;;4995234;28;20414;-77
2022/01/26 06:43:26;;;;;;;14.32;7.15;;;-1.80;99.90;;;;;;4996512;28;20026;-77
2022/01/26 06:46:01;;;;;;;15.63;7.93;;;-1.80;99.90;;;;;;4996869;28;20028;-76
2022/01/26 06:50:52;;;;;;;12.98;7.80;;;-1.90;99.90;;;;;;4995532;28;20133;-78
2022/01/26 06:53:18;;;;;;;14.23;8.13;;;-1.90;99.90;;;;;;4994706;28;20037;-78
2022/01/26 06:55:44;;;;;;;16.25;9.45;;;-1.80;99.90;;;;;;4995543;28;20447;-77
2022/01/26 06:58:10;;;;;;;17.15;9.02;;;-1.70;99.90;;;;;;4995550;28;20086;-78
2022/01/26 07:00:36;;;;;;;14.73;8.40;;;-1.70;99.90;;;;;;4994963;28;20038;-78
2022/01/26 07:03:02;;;;;;;17.48;8.63;;;-1.70;99.90;;;;;;4998080;28;20030;-78
2022/01/26 07:05:28;;;;;;;14.85;8.57;;;-1.70;99.90;;;;;;4997877;28;20034;-79
2022/01/26 07:07:54;;;;;;;19.35;9.48;;;-1.70;99.90;;;;;;4997298;28;20459;-79
2022/01/26 07:10:20;;;;;;;15.48;9.02;;;-1.70;99.90;;;;;;4997175;28;20027;-78
2022/01/26 07:12:46;;;;;;;15.30;8.25;;;-1.60;99.90;;;;;;4996739;28;20533;-79
2022/01/26 07:23:20;;;;;;;16.08;9.15;;;-1.30;99.90;;;;;;4994841;28;20038;-77
2022/01/26 07:25:46;;;;;;;15.00;8.75;;;-1.30;99.90;;;;;;4998769;28;20029;-77
2022/01/26 07:28:11;;;;;;;19.85;10.23;;;-1.30;99.90;;;;;;5013085;28;20029;-78
2022/01/26 07:30:37;;;;;;;16.45;9.48;;;-1.20;99.90;;;;;;5013607;28;20112;-78
2022/01/26 07:33:05;;;;;;;19.55;10.68;;;-1.20;99.90;;;;;;4995886;28;20038;-77
2022/01/26 07:35:31;;;;;;;18.17;9.52;;;-1.10;99.90;;;;;;5014591;28;20032;-78
2022/01/26 07:37:58;;;;;;;21.48;9.85;;;-1.10;99.90;;;;;;5012118;28;20495;-78
2022/01/26 07:40:25;;;;;;;16.45;9.98;;;-1.00;99.90;;;;;;4994371;28;20022;-78
2022/01/26 07:42:51;;;;;;;19.02;9.45;;;-0.90;99.90;;;;;;4994202;28;20061;-78
2022/01/26 07:45:17;;;;;;;17.20;9.77;;;-0.80;99.90;;;;;;4994125;28;20081;-78
2022/01/26 07:47:43;;;;;;;20.70;10.07;;;-0.80;99.90;;;;;;4993728;28;20085;-78
2022/01/26 07:50:13;;;;;;;18.10;9.75;;;-0.70;99.90;;;;;;4991653;28;20105;-78
2022/01/26 07:52:41;;;;;;;16.13;8.75;;;-0.60;99.90;;;;;;4993223;28;20077;-78
2022/01/26 07:55:09;;;;;;;19.08;10.43;;;-0.50;99.90;;;;;;4998396;28;20031;-79
2022/01/26 07:57:36;;;;;;;19.38;9.65;;;-0.40;99.90;;;;;;5000161;28;20456;-76
2022/01/26 08:00:03;;;;;;;15.50;8.40;;;-0.40;99.90;;;;;;4998359;28;20060;-78
2022/01/26 08:02:29;;;;;;;15.10;9.13;;;-0.20;99.90;;;;;;5002303;28;20022;-77
2022/01/26 08:04:56;;;;;;;16.67;8.70;;;0.10;99.90;;;;;;5001174;28;20034;-78
2022/01/26 08:07:21;;;;;;;22.08;9.98;;;0.50;99.90;;;;;;5003392;28;20121;-77
2022/01/26 08:09:47;;;;;;;21.48;10.45;;;0.60;99.90;;;;;;5009599;28;20030;-78
2022/01/26 08:12:15;;;;;;;16.73;9.85;;;0.60;99.90;;;;;;5019103;28;20026;-77
2022/01/26 08:14:42;;;;;;;19.80;10.98;;;0.70;99.90;;;;;;5016803;28;20347;-78
2022/01/26 08:17:09;;;;;;;21.60;10.00;;;0.70;99.90;;;;;;5003844;28;20030;-77
2022/01/26 08:19:35;;;;;;;16.83;9.10;;;0.80;99.90;;;;;;5015890;28;20366;-82
2022/01/26 08:22:03;;;;;;;20.73;11.63;;;1.30;99.90;;;;;;5005474;28;20034;-81
2022/01/26 08:24:30;;;;;;;26.80;13.80;;;1.40;99.90;;;;;;5022001;28;20033;-85
2022/01/26 08:27:06;;;;;;;24.38;13.40;;;1.20;99.00;;;;;;5023876;28;20026;-83
2022/01/26 08:29:45;;;;;;;24.08;13.02;;;1.10;99.10;;;;;;5003955;28;20018;-83
2022/01/26 08:32:10;;;;;;;30.08;15.18;;;1.00;99.50;;;;;;5003872;28;20018;-83
2022/01/26 08:34:37;;;;;;;25.33;14.13;;;1.00;99.80;;;;;;5017901;28;20028;-83
2022/01/26 08:37:04;;;;;;;27.33;13.68;;;1.00;99.90;;;;;;5000603;28;20069;-85
2022/01/26 08:39:30;;;;;;;26.67;13.88;;;1.00;99.90;;;;;;5018514;28;20026;-84
2022/01/26 08:41:59;;;;;;;28.33;14.45;;;1.00;99.90;;;;;;5018933;28;20022;-83
2022/01/26 08:44:26;;;;;;;26.33;13.48;;;1.10;99.90;;;;;;5002661;28;20030;-83
2022/01/26 08:46:53;;;;;;;24.52;14.25;;;1.20;99.80;;;;;;5002682;28;20028;-83
2022/01/26 08:49:18;;;;;;;23.40;12.85;;;1.30;99.40;;;;;;4997283;28;20369;-82
2022/01/26 08:51:44;;;;;;;23.15;13.13;;;1.40;98.60;;;;;;4997458;28;20160;-82
2022/01/26 08:54:11;;;;;;;23.77;13.25;;;1.50;98.50;;;;;;4997492;28;20030;-84
2022/01/26 08:56:37;;;;;;;23.27;12.20;;;1.60;98.00;;;;;;4998298;28;20022;-83
2022/01/26 08:59:03;;;;;;;21.25;11.90;;;1.70;97.30;;;;;;4998278;28;20041;-84
2022/01/26 09:01:32;;;;;;;24.45;11.77;;;1.80;97.20;;;;;;4997887;28;20053;-84
2022/01/26 09:03:57;;;;;;;22.70;12.93;;;2.00;96.90;;;;;;4999491;28;20082;-83
2022/01/26 09:06:23;;;;;;;21.52;11.77;;;2.10;96.50;;;;;;4997651;28;20478;-84
2022/01/26 09:09:00;;;;;;;23.90;11.93;;;2.20;95.90;;;;;;4998190;28;20052;-82
2022/01/26 09:11:26;;;;;;;23.45;12.15;;;2.20;95.50;;;;;;5017230;28;20489;-84
2022/01/26 09:13:57;;;;;;;19.17;11.38;;;2.30;95.00;;;;;;5019391;28;20033;-83
2022/01/26 09:16:24;;;;;;;20.30;11.98;;;2.30;95.10;;;;;;5016612;28;20033;-84
2022/01/26 09:18:54;;;;;;;21.00;11.75;;;2.40;94.60;;;;;;4998200;28;20050;-84
2022/01/26 09:21:21;;;;;;;20.40;11.70;;;2.50;94.80;;;;;;4997487;28;20026;-83
2022/01/26 09:23:47;;;;;;;24.05;12.80;;;2.60;94.40;;;;;;4999471;28;20113;-83
2022/01/26 09:26:14;;;;;;;24.92;13.10;;;2.70;94.10;;;;;;5000871;28;20053;-84
2022/01/26 09:28:40;;;;;;;20.58;11.30;;;2.80;93.80;;;;;;4999799;28;20085;-83
2022/01/26 09:31:06;;;;;;;15.73;10.20;;;2.90;94.00;;;;;;5001416;28;20082;-85
2022/01/26 09:33:32;;;;;;;18.90;11.32;;;3.10;94.00;;;;;;5001787;28;20094;-83
2022/01/26 09:36:15;;;;;;;25.20;14.10;;;3.30;93.80;;;;;;5001345;28;20116;-84
2022/01/26 09:38:40;;;;;;;24.45;13.65;;;3.40;92.30;;;;;;4999691;28;20034;-84
2022/01/26 09:41:10;;;;;;;28.33;14.23;;;3.60;91.70;;;;;;5003828;28;20474;-84
2022/01/26 09:43:37;;;;;;;28.23;15.02;;;4.00;91.20;;;;;;5003694;28;20022;-82
2022/01/26 09:46:03;;;;;;;26.63;14.63;;;4.40;89.60;;;;;;5008688;28;20149;-84
2022/01/26 09:48:29;;;;;;;24.95;14.18;;;4.50;89.00;;;;;;5002634;28;20038;-85
2022/01/26 09:50:56;;;;;;;27.67;13.32;;;4.50;88.80;;;;;;4985596;28;20022;-84
2022/01/26 09:53:33;;;;;;;26.10;13.40;;;4.60;86.10;;;;;;5004272;28;20110;-84
2022/01/26 09:56:00;;;;;;;23.13;13.00;;;4.90;85.30;;;;;;4988409;28;20058;-83
2022/01/26 09:58:27;;;;;;;24.65;12.40;;;5.30;83.00;;;;;;4986846;28;20540;-82
2022/01/26 10:01:04;;;;;;;23.77;12.60;;;5.20;81.40;;;;;;4986213;28;20159;-85
2022/01/26 10:03:33;;;;;;;20.27;12.02;;;5.00;82.30;;;;;;5002271;28;20026;-83
2022/01/26 10:06:00;;;;;;;22.08;11.57;;;4.90;83.30;;;;;;4985952;28;20034;-85
2022/01/26 10:22:28;;;;;;;21.63;12.57;;;4.90;84.30;;;;;;4909232;29;20043;-84
2022/01/26 10:25:14;;;;;;;22.58;11.82;;;4.90;83.30;;;;;;4994287;28;20050;-85
2022/01/26 10:27:50;;;;;;;19.67;11.25;;;4.90;83.30;;;;;;5024048;28;20022;-84
2022/01/26 10:30:19;;;;;;;24.60;13.55;;;4.90;83.90;;;;;;5026973;28;20017;-82
2022/01/26 10:32:46;;;;;;;24.63;14.70;;;5.00;82.80;;;;;;5026985;28;20026;-83
2022/01/26 10:35:15;;;;;;;20.65;12.50;;;5.00;83.00;;;;;;5022052;28;20034;-86
2022/01/26 10:37:57;;;;;;;20.73;11.70;;;5.10;83.90;;;;;;5004120;28;20367;-84
2022/01/26 10:40:25;;;;;;;;;;;5.20;83.40;;;;;;5023213;28;20189;-84
2022/01/26 10:43:06;;;;;;;25.30;13.15;;;5.30;83.30;;;;;;5028355;28;19909;-83
2022/01/26 10:48:41;;;;;;;26.08;14.13;;;5.40;81.90;;;;;;5021865;28;20159;-83
2022/01/26 10:53:48;;;;;;;21.40;12.68;;;5.40;82.10;;;;;;5028900;28;20033;-82
2022/01/26 10:56:14;;;;;;;24.23;13.40;;;5.50;82.50;;;;;;5028496;28;20040;-84
2022/01/26 10:58:41;;;;;;;25.83;14.82;;;5.60;81.20;;;;;;5011423;28;20037;-84
2022/01/26 11:01:07;;;;;;;26.98;13.77;;;5.60;80.70;;;;;;5025558;28;20018;-83
2022/01/26 11:03:36;;;;;;;23.73;13.63;;;5.40;80.20;;;;;;5023939;28;20021;-83
2022/01/26 11:06:06;;;;;;;24.80;13.65;;;5.40;81.70;;;;;;5005929;28;20030;-83
2022/01/26 11:08:38;;;;;;;29.27;14.63;;;5.50;82.00;;;;;;5021262;28;20026;-83
2022/01/26 11:11:05;;;;;;;27.08;14.18;;;5.60;81.40;;;;;;5021271;28;20033;-83
2022/01/26 11:13:36;;;;;;;25.30;14.32;;;5.60;80.90;;;;;;5020827;28;20029;-84
2022/01/26 11:16:09;;;;;;;25.40;13.73;;;5.60;81.10;;;;;;4997926;28;20479;-82
2022/01/26 11:18:58;;;;;;;28.20;15.32;;;5.60;79.90;;;;;;4998526;28;20026;-84
2022/01/26 11:21:26;;;;;;;22.63;12.90;;;5.60;80.00;;;;;;5008101;28;20018;-83
2022/01/26 11:24:03;;;;;;;23.75;13.57;;;5.50;80.00;;;;;;5018915;28;20172;-83
2022/01/26 11:26:29;;;;;;;21.50;13.20;;;5.60;80.40;;;;;;5018439;28;20022;-82
2022/01/26 11:28:55;;;;;;;27.20;13.85;;;5.60;79.80;;;;;;4998906;28;20072;-84
2022/01/26 11:31:21;;;;;;;27.35;13.95;;;5.50;79.20;;;;;;5017194;28;20026;-83
2022/01/26 11:36:18;;;;;;;29.50;14.32;;;5.50;80.30;;;;;;5020671;28;20050;-81
2022/01/26 11:47:19;;;;;;;26.15;14.32;;;5.40;80.20;;;;;;4985642;28;20086;-82
2022/01/26 11:49:47;;;;;;;26.60;14.90;;;5.30;81.10;;;;;;4985558;28;20427;-82
2022/01/26 11:52:27;;;;;;;29.85;14.70;;;5.20;81.90;;;;;;4984792;28;20084;-83
2022/01/26 11:54:59;;;;;;;24.25;13.27;;;5.10;81.90;;;;;;4986240;28;20098;-82
2022/01/26 11:57:38;;;;;;;27.52;14.82;;;5.10;81.90;;;;;;4988019;28;20041;-82
2022/01/26 12:00:10;;;;;;;26.25;14.13;;;5.10;81.50;;;;;;4972938;28;20038;-82
2022/01/26 12:05:17;;;;;;;26.48;14.45;;;5.10;82.10;;;;;;5002451;28;20054;-82
2022/01/26 12:07:52;;;;;;;26.50;14.63;;;5.20;82.00;;;;;;4979124;28;20106;-83
2022/01/26 12:10:27;;;;;;;29.13;14.40;;;5.30;81.30;;;;;;4990884;28;20022;-83
2022/01/26 12:13:05;;;;;;;26.38;13.57;;;5.30;82.30;;;;;;4998324;28;20044;-83
2022/01/26 12:15:40;;;;;;;21.15;11.82;;;5.30;83.00;;;;;;4993363;28;20093;-82
2022/01/26 12:37:14;;;;;;;26.90;15.50;;;5.70;81.20;;;;;;4998386;28;20046;-83
2022/01/26 12:45:22;;;;;;;32.58;17.38;;;5.90;80.60;;;;;;4989336;28;20113;-82
2022/01/26 12:47:54;;;;;;;27.38;16.08;;;5.90;80.70;;;;;;4973418;28;20039;-82
2022/01/26 12:50:21;;;;;;;31.50;17.33;;;6.00;80.10;;;;;;4989683;28;20054;-83
2022/01/26 12:52:50;;;;;;;31.85;17.02;;;5.90;79.20;;;;;;4971980;28;20073;-82
2022/01/26 12:55:23;;;;;;;30.05;16.33;;;5.80;80.20;;;;;;4990252;28;20038;-82
2022/01/26 12:57:49;;;;;;;29.88;16.63;;;5.80;80.60;;;;;;4989739;28;20031;-83
2022/01/26 13:00:16;;;;;;;29.98;17.13;;;5.80;80.30;;;;;;4975479;28;20023;-83
2022/01/26 13:02:42;;;;;;;37.50;17.98;;;5.80;81.10;;;;;;4977106;28;20049;-82
2022/01/26 13:05:08;;;;;;;32.50;17.58;;;5.90;81.20;;;;;;5002689;28;20030;-83
2022/01/26 13:07:34;;;;;;;30.38;16.92;;;6.00;81.30;;;;;;5015068;28;20062;-82
2022/01/26 13:10:00;;;;;;;33.35;17.45;;;6.10;80.30;;;;;;5017317;28;20026;-83
2022/01/26 13:12:32;;;;;;;31.38;17.35;;;6.10;78.80;;;;;;5014149;28;20065;-82
2022/01/26 13:15:07;;;;;;;31.42;16.77;;;6.10;79.60;;;;;;5012397;28;20030;-82
2022/01/26 13:17:41;;;;;;;29.20;17.48;;;6.10;79.20;;;;;;5013502;28;20078;-82
2022/01/26 13:26:10;;;;;;;30.17;15.77;;;6.00;78.60;;;;;;5041668;22;20099;-81
2022/01/26 13:37:08;;;;;;;28.92;16.20;;;6.00;79.10;;;;;;5044905;28;20043;-81
2022/01/26 13:39:53;;;;;;;29.23;15.88;;;6.00;79.20;;;;;;5043748;28;20043;-81
2022/01/26 13:50:22;;;;;;;31.05;16.02;;;6.00;78.30;;;;;;5044853;28;20108;-82
2022/01/26 13:53:36;;;;;;;32.35;15.60;;;5.90;78.50;;;;;;5046433;28;20036;-81
2022/01/26 14:00:53;;;;;;;25.77;16.45;;;5.90;78.80;;;;;;5065699;28;20025;-84
2022/01/26 14:03:21;;;;;;;32.13;17.38;;;5.90;79.10;;;;;;5073078;28;20040;-80
2022/01/26 14:05:47;;;;;;;24.73;14.93;;;6.00;79.40;;;;;;5060214;28;20010;-80
2022/01/26 14:08:12;;;;;;;30.17;17.05;;;6.00;79.70;;;;;;5039419;28;20482;-79
2022/01/26 14:10:43;;;;;;;28.17;16.77;;;6.10;78.60;;;;;;5053059;28;20079;-81
2022/01/26 14:13:09;;;;;;;30.02;16.73;;;6.00;78.50;;;;;;5062624;28;20021;-81
2022/01/26 14:15:40;;;;;;;31.45;16.67;;;5.90;78.90;;;;;;5039802;28;20038;-82
2022/01/26 14:25:54;;;;;;;30.27;15.75;;;5.50;81.10;;;;;;5050216;28;20040;-82
2022/01/26 14:28:23;;;;;;;28.85;16.48;;;5.50;81.80;;;;;;5042746;28;20091;-82
2022/01/26 14:55:41;;;;;;;36.00;17.30;;;5.00;85.10;;;;;;5042570;28;20528;-84
2022/01/26 15:09:39;;;;;;;35.22;18.70;;;4.60;88.20;;;;;;5033166;28;20052;-82
2022/01/26 15:21:37;;;;;;;41.00;21.38;;;4.10;90.50;;;;;;5070632;28;20097;-83
2022/01/26 15:40:05;;;;;;;44.47;23.90;;;3.50;92.90;;;;;;5054095;28;20089;-83
2022/01/26 16:06:04;;;;;;;49.30;23.90;;;2.30;97.60;;;;;;5047444;28;20081;-85
2022/01/26 16:19:59;;;;;;;46.97;24.75;;;1.60;99.60;;;;;;5060944;28;20062;-82
2022/01/26 16:38:54;;;;;;;49.70;24.17;;;1.10;99.90;;;;;;5032398;28;20398;-84
2022/01/26 18:33:11;;;;;;;56.95;26.90;;;1.20;99.90;;;;;;5024488;28;20380;-81
2022/01/26 18:49:11;;;;;;;58.97;28.35;;;1.00;99.90;;;;;;5039975;28;20033;-79
2022/01/26 18:49:25;;;;;;;56.80;27.30;;;1.10;99.90;;;;;;5030008;28;20033;-81
2022/01/26 18:51:59;;;;;;;57.60;27.80;;;1.10;99.90;;;;;;5043670;28;20045;-82
2022/01/26 18:54:33;;;;;;;61.92;28.95;;;1.10;99.90;;;;;;5049195;28;20014;-82
2022/01/26 18:57:03;;;;;;;60.58;27.13;;;1.00;99.90;;;;;;5043109;28;20048;-81
2022/01/26 18:59:29;;;;;;;55.92;25.27;;;1.00;99.90;;;;;;5035178;28;20018;-81
2022/01/26 19:01:56;;;;;;;58.35;28.45;;;1.00;99.90;;;;;;5032641;28;20117;-82
2022/01/26 19:04:29;;;;;;;52.25;26.95;;;1.10;99.90;;;;;;5021342;28;20030;-82
2022/01/26 19:06:55;;;;;;;;;;;1.10;99.90;;;;;;5019886;28;20025;-82
2022/01/26 19:09:25;;;;;;;56.45;27.08;;;1.10;99.90;;;;;;5029103;28;20052;-80
2022/01/26 19:11:51;;;;;;;70.70;31.75;;;1.10;99.90;;;;;;5032819;28;20057;-80
2022/01/26 19:14:18;;;;;;;75.20;32.13;;;1.10;99.90;;;;;;5007798;28;20030;-80
2022/01/26 19:16:50;;;;;;;67.38;29.73;;;1.10;99.90;;;;;;5037823;28;20064;-81
2022/01/26 19:26:58;;;;;;;74.15;32.30;;;1.10;99.90;;;;;;5035845;28;20022;-80
2022/01/26 19:32:15;;;;;;;67.88;29.83;;;1.20;99.90;;;;;;5026399;28;20044;-80
2022/01/26 19:53:40;;;;;;;74.43;33.22;;;1.20;99.90;;;;;;5055604;22;20398;-81
2022/01/26 19:59:11;;;;;;;61.65;27.45;;;1.30;99.90;;;;;;5040656;28;19923;-80
2022/01/26 20:01:42;;;;;;;65.65;30.13;;;1.30;99.90;;;;;;5026272;28;20022;-81
2022/01/26 20:04:09;;;;;;;63.00;29.45;;;1.30;99.90;;;;;;5015409;28;20036;-81
2022/01/26 20:06:38;;;;;;;58.75;27.02;;;1.30;99.90;;;;;;5047256;28;20433;-80
2022/01/26 20:09:21;;;;;;;63.97;30.52;;;1.20;99.90;;;;;;5046121;28;20023;-80
2022/01/26 20:11:59;;;;;;;63.35;28.25;;;1.20;99.90;;;;;;5034286;28;20037;-80
2022/01/26 20:14:44;;;;;;;53.40;25.58;;;1.20;99.90;;;;;;5042940;28;20083;-79
2022/01/26 20:17:13;;;;;;;54.60;25.50;;;1.10;99.90;;;;;;5026606;28;20036;-79
2022/01/26 20:19:54;;;;;;;46.17;22.45;;;1.10;99.90;;;;;;5042428;28;20081;-82
2022/01/26 20:25:48;;;;;;;67.68;29.77;;;1.30;99.90;;;;;;5013730;28;20045;-80
2022/01/26 20:28:43;;;;;;;;;;;;;;;;;;;;;
2022/01/26 20:31:25;;;;;;;66.35;31.90;;;1.30;99.90;;;;;;5017293;28;20519;-81
2022/01/26 20:34:02;;;;;;;61.35;28.63;;;1.30;99.90;;;;;;5016705;28;20076;-80